Flight Track Log - Related Links

Times and Time Zones

All times are in EDT time to prevent confusion due to time zone crossing. See the DAL629 flight status page for this flight to view local times or setup timezone preferences in your user account.

Time Position Orientation Groundspeed Altitude Reporting Facility
EDT Latitude Longitude Course Direction KTS MPH feet Rate Location/Type
Sat 09:50:11 PM 42.2050 -83.3680 North 2 2  Level FlightAware ADS-B
Sat 09:51:00 PM 42.3315 -83.3500 North  Level FlightAware Approximate
Sat 09:51:39 PM 42.2060 -83.3680 360° North 11 13  Level FlightAware ADS-B
Sat 09:52:53 PM 42.2060 -83.3690 270° West 2 2 69 Level FlightAware ADS-B
Sat 09:53:57 PM 42.2060 -83.3680 90° East 2 2 77 Level FlightAware ADS-B
Sat 09:54:51 PM 42.2070 -83.3680 360° North 2 2 84 Level FlightAware ADS-B
Sat 09:56:09 PM 42.2080 -83.3670 37° Northeast 22 25 92 Level FlightAware ADS-B
Sat 09:56:37 PM 42.2090 -83.3660 37° Northeast 32 37 106 Level FlightAware ADS-B
Sat 09:57:05 PM 42.2110 -83.3650 20° North 16 18 112 Level FlightAware ADS-B
Sat 09:57:31 PM 42.2120 -83.3630 56° Northeast 17 20 119 Level FlightAware ADS-B
Sat 09:58:01 PM 42.2150 -83.3620 14° North 20 23 126 Level FlightAware ADS-B
Sat 09:58:19 PM 42.2160 -83.3600 56° Northeast 34 39 136 Level FlightAware ADS-B
Sat 09:59:20 PM 42.2170 -83.3640 289° West 18 21 142 Level FlightAware ADS-B
Sat 10:00:17 PM 42.2200 -83.3620 26° Northeast 20 23 170 Level FlightAware ADS-B
Sat 10:00:45 PM 42.2230 -83.3600 26° Northeast 22 25 207 Level FlightAware ADS-B
Sat 10:01:13 PM 42.2250 -83.3580 37° Northeast 24 28 232 Level FlightAware ADS-B
Sat 10:01:43 PM 42.2280 -83.3560 26° Northeast 24 28 263 Level FlightAware ADS-B
Sat 10:02:11 PM 42.2310 -83.3530 37° Northeast 22 25 309 Level FlightAware ADS-B
Sat 10:02:49 PM 42.2330 -83.3520 20° North 27 31 367 Level FlightAware ADS-B
Sat 10:03:13 PM 42.2340 -83.3520 360° North 15 17 495 Level FlightAware ADS-B
Sat 10:03:53 PM 42.2290 -83.3550 204° Southwest 82 94 635 Level FlightAware ADS-B
Sat 10:04:38 PM 42.2060 -83.3720 209° Southwest 182 209 900 1,552 Climbing FlightAware ADS-B
Sat 10:04:51 PM 42.1920 -83.3820 208° Southwest 183 211 1,500 2,000 Climbing FlightAware ADS-B
Sat 10:05:20 PM 42.1740 -83.4040 222° Southwest 188 216 2,300 1,245 Climbing FlightAware ADS-B
Sat 10:05:44 PM 42.1580 -83.4260 226° Southwest 217 250 2,600 840 Climbing FlightAware ADS-B
Sat 10:06:10 PM 42.1380 -83.4520 224° Southwest 238 274 3,000 923 Climbing FlightAware ADS-B
Sat 10:06:36 PM 42.1170 -83.4790 224° Southwest 257 296 3,400 1,125 Climbing FlightAware ADS-B
Sat 10:07:14 PM 42.0830 -83.5260 226° Southwest 279 321 4,200 1,560 Climbing FlightAware ADS-B
Sat 10:07:26 PM 42.0730 -83.5420 230° Southwest 277 319 4,700 2,143 Climbing FlightAware ADS-B
Sat 10:07:42 PM 42.0680 -83.5680 255° West 277 319 5,200 2,100 Climbing FlightAware ADS-B
Sat 10:08:06 PM 42.0780 -83.6070 289° West 287 330 6,100 2,053 Climbing FlightAware ADS-B
Sat 10:08:20 PM 42.0910 -83.6220 319° Northwest 298 343 6,500 1,909 Climbing FlightAware ADS-B
Sat 10:08:50 PM 42.1300 -83.6520 330° Northwest 308 354 7,500 1,966 Climbing FlightAware ADS-B
Sat 10:09:18 PM 42.1650 -83.6780 331° Northwest 313 360 8,400 1,875 Climbing FlightAware ADS-B
Sat 10:09:38 PM 42.1920 -83.6980 331° Northwest 320 368 9,000 1,765 Climbing FlightAware ADS-B
Sat 10:09:52 PM 42.2080 -83.7110 329° Northwest 325 374 9,400 1,714 Climbing FlightAware ADS-B
Sat 10:10:20 PM 42.2490 -83.7300 341° North 343 395 10,200 1,500 Climbing FlightAware ADS-B
Sat 10:10:52 PM 42.3020 -83.7140 13° North 366 421 10,900 1,114 Climbing FlightAware ADS-B
Sat 10:11:30 PM 42.3630 -83.6790 23° Northeast 390 449 11,500 1,098 Climbing FlightAware ADS-B
Sat 10:12:14 PM 42.4400 -83.6390 21° North 419 482 12,400 1,295 Climbing FlightAware ADS-B
Sat 10:12:58 PM 42.5200 -83.5930 23° Northeast 440 506 13,400 1,571 Climbing FlightAware ADS-B
Sat 10:13:38 PM 42.5960 -83.5480 24° Northeast 452 520 14,600 1,816 Climbing FlightAware ADS-B
Sat 10:14:14 PM 42.6670 -83.5050 24° Northeast 460 529 15,700 1,737 Climbing FlightAware ADS-B
Sat 10:14:54 PM 42.7440 -83.4590 24° Northeast 468 539 16,800 1,786 Climbing FlightAware ADS-B
Sat 10:15:38 PM 42.8330 -83.4070 23° Northeast 472 543 18,200 1,786 Climbing FlightAware ADS-B
Sat 10:16:18 PM 42.9160 -83.3640 21° North 478 550 19,300 1,463 Climbing FlightAware ADS-B
Sat 10:17:00 PM 43.0100 -83.3550 North 484 557 20,200 1,250 Climbing FlightAware ADS-B
Sat 10:17:30 PM 43.0740 -83.3740 348° North 480 552 20,800 1,138 Climbing FlightAware ADS-B
Sat 10:17:58 PM 43.1240 -83.4220 325° Northwest 472 543 21,300 1,286 Climbing FlightAware ADS-B
Sat 10:18:40 PM 43.1850 -83.5150 312° West 475 547 22,300 1,385 Climbing FlightAware ADS-B
Sat 10:19:16 PM 43.2380 -83.5980 311° West 480 552 23,100 1,247 Climbing FlightAware ADS-B
Sat 10:19:57 PM 43.2980 -83.6920 311° West 486 559 23,900 1,200 Climbing FlightAware ADS-B
Sat 10:20:36 PM 43.3550 -83.7800 312° West 491 565 24,700 1,139 Climbing FlightAware ADS-B
Sat 10:21:16 PM 43.4160 -83.8760 311° West 496 571 25,400 1,111 Climbing FlightAware ADS-B
Sat 10:21:57 PM 43.4790 -83.9740 312° West 501 577 26,200 1,037 Climbing FlightAware ADS-B
Sat 10:22:37 PM 43.5430 -84.0680 313° West 509 586 26,800 900 Climbing FlightAware ADS-B
Sat 10:23:17 PM 43.6170 -84.1540 320° Northwest 517 595 27,400 935 Climbing FlightAware ADS-B
Sat 10:23:54 PM 43.6870 -84.2300 322° Northwest 522 601 28,000 963 Climbing FlightAware ADS-B
Sat 10:24:38 PM 43.7720 -84.3160 324° Northwest 525 604 28,700 940 Climbing FlightAware ADS-B
Sat 10:25:17 PM 43.8460 -84.3920 323° Northwest 526 605 29,300 940 Climbing FlightAware ADS-B
Sat 10:26:01 PM 43.9320 -84.4790 324° Northwest 528 608 30,000 786 Climbing FlightAware ADS-B
Sat 10:26:41 PM 44.0140 -84.5640 323° Northwest 532 612 30,400 732 Climbing FlightAware ADS-B
Sat 10:27:23 PM 44.0950 -84.6480 323° Northwest 535 616 31,000 857 Climbing FlightAware ADS-B
Sat 10:28:05 PM 44.1760 -84.7320 323° Northwest 533 613 31,600 714 Climbing FlightAware ADS-B
Sat 10:28:47 PM 44.2620 -84.8240 323° Northwest 534 615 32,000 282 Climbing FlightAware ADS-B
Sat 10:29:30 PM 44.3480 -84.9130 324° Northwest 531 611 32,000  Level FlightAware ADS-B
Sat 10:30:11 PM 44.4270 -84.9970 323° Northwest 528 608 32,000  Level FlightAware ADS-B
Sat 10:30:47 PM 44.4970 -85.0720 323° Northwest 529 609 32,000  Level FlightAware ADS-B
Sat 10:31:36 PM 44.5930 -85.1740 323° Northwest 529 609 32,000  Level FlightAware ADS-B
Sat 10:32:16 PM 44.6700 -85.2560 323° Northwest 528 608 32,000  Level FlightAware ADS-B
Sat 10:32:54 PM 44.7350 -85.3280 322° Northwest 529 609 32,000  Level FlightAware ADS-B
Sat 10:33:42 PM 44.8140 -85.4140 322° Northwest 529 609 32,000  Level FlightAware ADS-B
Sat 10:34:18 PM 44.8730 -85.4790 322° Northwest 529 609 32,000  Level FlightAware ADS-B
Sat 10:35:06 PM 44.9520 -85.5660 322° Northwest 529 609 32,000  Level FlightAware ADS-B
Sat 10:35:40 PM 45.0660 -85.6850 324° Northwest 528 608 32,000  Level FlightAware ADS-B
Sat 10:36:22 PM 45.1480 -85.7740 323° Northwest 527 606 32,000  Level FlightAware ADS-B
Sat 10:37:03 PM 45.2260 -85.8600 322° Northwest 527 606 32,000  Level FlightAware ADS-B
Sat 10:37:38 PM 45.2940 -85.9340 323° Northwest 526 605 32,000  Level FlightAware ADS-B
Sat 10:38:20 PM 45.3750 -86.0230 322° Northwest 526 605 32,000  Level FlightAware ADS-B
Sat 10:39:10 PM 45.4700 -86.1290 322° Northwest 527 606 32,000  Level FlightAware ADS-B
Sat 10:39:56 PM 45.5590 -86.2280 322° Northwest 527 606 32,000  Level FlightAware ADS-B
Sat 10:40:53 PM 45.6610 -86.3440 322° Northwest 526 605 32,000  Level FlightAware ADS-B
Sat 10:41:41 PM 45.7380 -86.4330 321° Northwest 526 605 32,000  Level FlightAware ADS-B
Sat 10:42:17 PM 45.7960 -86.5010 321° Northwest 526 605 32,000  Level FlightAware ADS-B
Sat 10:42:53 PM 45.8530 -86.5680 321° Northwest 526 605 32,000  Level FlightAware ADS-B
Sat 10:43:53 PM 45.9500 -86.6800 321° Northwest 526 605 32,000  Level FlightAware ADS-B
Sat 10:44:30 PM 46.0090 -86.7490 321° Northwest 526 605 32,000  Level FlightAware ADS-B
Sat 10:45:18 PM 46.0870 -86.8390 321° Northwest 526 605 32,000  Level FlightAware ADS-B
Sat 10:45:55 PM 46.1460 -86.9090 321° Northwest 526 605 32,000  Level FlightAware ADS-B
Sat 10:46:32 PM 46.2050 -86.9790 321° Northwest 526 605 32,000  Level FlightAware ADS-B
Sat 10:47:44 PM 46.3210 -87.1140 321° Northwest 526 605 32,000  Level FlightAware ADS-B
Sat 10:48:20 PM 46.3790 -87.1820 321° Northwest 526 605 32,000  Level FlightAware ADS-B
Sat 10:49:09 PM 46.4580 -87.2750 321° Northwest 526 605 32,000  Level FlightAware ADS-B
Sat 10:49:33 PM 46.4960 -87.3200 321° Northwest 526 605 32,000  Level FlightAware ADS-B
Sat 10:50:21 PM 46.5740 -87.4110 321° Northwest 526 605 32,000  Level FlightAware ADS-B
Sat 10:51:08 PM 46.8000 -87.6667 321° Northwest 520 598 32,000  Level Winnipeg Center
Sat 10:56:41 PM 47.4540 -88.4460 321° Northwest 518 596 32,000  Level FlightAware ADS-B
Sat 10:57:21 PM 47.5280 -88.5360 321° Northwest 516 594 32,000  Level FlightAware ADS-B
Sat 10:58:06 PM 47.6100 -88.6380 320° Northwest 514 592 32,000  Level FlightAware ADS-B
Sat 10:59:03 PM 47.7020 -88.7550 319° Northwest 514 592 32,000  Level FlightAware ADS-B
Sat 10:59:39 PM 47.7570 -88.8260 319° Northwest 514 592 32,000  Level FlightAware ADS-B
Sat 11:00:27 PM 47.8300 -88.9210 319° Northwest 514 592 32,000  Level FlightAware ADS-B
Sat 11:01:03 PM 47.8850 -88.9920 319° Northwest 514 592 32,000  Level FlightAware ADS-B
Sat 11:01:39 PM 47.9400 -89.0630 319° Northwest 514 592 32,000  Level FlightAware ADS-B
Sat 11:02:40 PM 48.0330 -89.1840 319° Northwest 514 592 32,000  Level FlightAware ADS-B
Sat 11:03:16 PM 48.0880 -89.2560 319° Northwest 514 592 32,000  Level FlightAware ADS-B
Sat 11:03:52 PM 48.1430 -89.3270 319° Northwest 514 592 32,000  Level FlightAware ADS-B
Sat 11:04:40 PM 48.2160 -89.4230 319° Northwest 514 592 32,000  Level FlightAware ADS-B
Sat 11:05:16 PM 48.2710 -89.4940 319° Northwest 514 592 32,000  Level FlightAware ADS-B
Sat 11:05:52 PM 48.3260 -89.5660 319° Northwest 514 592 32,000  Level FlightAware ADS-B
Sat 11:06:53 PM 48.5380 -89.8140 322° Northwest 498 573 32,000  Level FlightAware ADS-B
Sat 11:07:30 PM 48.5930 -89.8860 319° Northwest 498 573 32,000  Level FlightAware ADS-B
Sat 11:08:31 PM 48.6830 -90.0040 319° Northwest 498 573 32,000  Level FlightAware ADS-B
Sat 11:09:08 PM 48.7380 -90.0760 319° Northwest 498 573 32,000  Level FlightAware ADS-B
Sat 11:10:09 PM 48.8280 -90.1950 319° Northwest 498 573 32,000  Level FlightAware ADS-B
Sat 11:10:46 PM 48.8820 -90.2680 318° Northwest 498 573 32,000  Level FlightAware ADS-B
Sat 11:11:34 PM 48.9530 -90.3610 319° Northwest 498 573 32,000  Level FlightAware ADS-B
Sat 11:12:10 PM 49.0070 -90.4320 319° Northwest 498 573 32,000  Level FlightAware ADS-B
Sat 11:12:58 PM 49.0770 -90.5260 319° Northwest 498 573 32,000  Level FlightAware ADS-B
Sat 11:13:34 PM 49.1310 -90.5970 319° Northwest 498 573 32,000  Level FlightAware ADS-B
Sat 11:14:11 PM 49.1850 -90.6690 319° Northwest 498 573 32,000  Level FlightAware ADS-B
Sat 11:14:59 PM 49.2560 -90.7640 319° Northwest 498 573 32,000  Level FlightAware ADS-B
Sat 11:15:35 PM 49.3100 -90.8350 319° Northwest 498 573 32,000  Level FlightAware ADS-B
Sat 11:16:24 PM 49.3820 -90.9310 319° Northwest 498 573 32,000  Level FlightAware ADS-B
Sat 11:17:08 PM 49.5833 -91.1500 319° Northwest 480 552 32,000  Level Winnipeg Center
Sat 11:18:08 PM 49.6833 -91.3000 316° Northwest 480 552 32,000  Level Winnipeg Center
Sat 11:19:08 PM 49.8000 -91.4500 320° Northwest 480 552 32,000  Level Winnipeg Center
Sat 11:20:08 PM 49.9000 -91.5833 319° Northwest 480 552 32,000  Level Winnipeg Center
Sat 11:21:08 PM 49.9833 -91.7000 318° Northwest 480 552 32,000  Level Winnipeg Center
Sat 11:22:08 PM 50.1000 -91.8500 321° Northwest 480 552 32,000  Level Winnipeg Center
Sat 11:23:08 PM 50.1667 -92.0000 305° West 480 552 32,000  Level Winnipeg Center
Sat 11:24:08 PM 50.2667 -92.1667 313° West 480 552 32,000  Level Winnipeg Center
Sat 11:25:08 PM 50.3500 -92.3167 311° West 480 552 32,000  Level Winnipeg Center
Sat 11:26:08 PM 50.4333 -92.5000 306° West 480 552 32,000  Level Winnipeg Center
Sat 11:27:08 PM 50.5167 -92.6667 308° West 480 552 32,000  Level Winnipeg Center
Sat 11:28:08 PM 50.5833 -92.8333 302° West 480 552 32,000  Level Winnipeg Center
Sat 11:29:08 PM 50.6833 -93.0000 313° West 480 552 32,000  Level Winnipeg Center
Sat 11:30:08 PM 50.7667 -93.1500 311° West 480 552 32,000  Level Winnipeg Center
Sat 11:31:08 PM 50.8667 -93.3333 311° West 480 552 32,000  Level Winnipeg Center
Sat 11:32:08 PM 50.9333 -93.4833 305° West 480 552 32,000  Level Winnipeg Center
Sat 11:33:08 PM 51.0167 -93.6667 306° West 480 552 32,000  Level Winnipeg Center
Sat 11:34:08 PM 51.1000 -93.8167 312° West 480 552 32,000  Level Winnipeg Center
Sat 11:35:08 PM 51.2333 -93.9500 328° Northwest 480 552 32,000  Level Winnipeg Center
Sat 11:36:08 PM 51.3167 -94.0667 319° Northwest 480 552 32,000  Level Winnipeg Center
Sat 11:37:08 PM 51.4167 -94.2000 320° Northwest 480 552 32,000  Level Winnipeg Center
Sat 11:38:08 PM 51.5167 -94.3500 317° Northwest 480 552 32,000  Level Winnipeg Center
Sat 11:39:08 PM 51.6333 -94.4833 325° Northwest 490 564 32,000  Level Winnipeg Center
Sat 11:40:08 PM 51.7500 -94.6333 322° Northwest 490 564 32,000  Level Winnipeg Center
Sat 11:41:08 PM 51.8500 -94.7667 321° Northwest 480 552 32,000  Level Winnipeg Center
Sat 11:42:08 PM 51.9500 -94.9333 314° West 490 564 32,000  Level Winnipeg Center
Sat 11:43:08 PM 52.0333 -95.0667 315° West 490 564 32,000  Level Winnipeg Center
Sat 11:44:08 PM 52.1500 -95.1833 328° Northwest 490 564 32,000  Level Winnipeg Center
Sat 11:45:08 PM 52.2667 -95.3500 319° Northwest 490 564 32,000  Level Winnipeg Center
Sat 11:46:08 PM 52.3667 -95.4833 321° Northwest 500 575 32,000  Level Winnipeg Center
Sat 11:47:08 PM 52.4833 -95.6500 319° Northwest 500 575 32,000  Level Winnipeg Center
Sat 11:48:08 PM 52.5833 -95.8000 318° Northwest 500 575 32,000  Level Winnipeg Center
Sat 11:49:08 PM 52.6833 -95.9500 318° Northwest 500 575 32,000  Level Winnipeg Center
Sat 11:50:08 PM 52.7833 -96.1000 318° Northwest 500 575 32,000  Level Winnipeg Center
Sat 11:51:08 PM 52.9000 -96.2500 322° Northwest 510 587 32,000  Level Winnipeg Center
Sat 11:52:08 PM 53.0000 -96.4000 318° Northwest 510 587 32,000  Level Winnipeg Center
Sat 11:53:08 PM 53.1000 -96.5667 315° West 510 587 32,000  Level Winnipeg Center
Sat 11:54:08 PM 53.2333 -96.7167 326° Northwest 510 587 32,000  Level Winnipeg Center
Sat 11:55:08 PM 53.3333 -96.8833 315° West 510 587 32,000  Level Winnipeg Center
Sat 11:56:08 PM 53.4500 -97.0167 326° Northwest 510 587 32,000  Level Winnipeg Center
Sat 11:57:08 PM 53.5500 -97.1833 315° West 510 587 32,000  Level Winnipeg Center
Sat 11:58:08 PM 53.6500 -97.3667 313° West 510 587 32,000  Level Winnipeg Center
Sat 11:59:08 PM 53.7500 -97.5000 322° Northwest 510 587 32,000  Level Winnipeg Center
Sun 12:00:08 AM 53.8667 -97.6667 320° Northwest 500 575 32,000  Level Winnipeg Center
Sun 12:01:08 AM 53.9667 -97.8500 313° West 500 575 32,000  Level Winnipeg Center
Sun 12:02:08 AM 54.0667 -98.0167 316° Northwest 510 587 32,000  Level Winnipeg Center
Sun 12:03:08 AM 54.1333 -98.2167 300° West 500 575 32,000  Level Winnipeg Center
Sun 12:04:08 AM 54.2167 -98.4000 308° West 510 587 32,000  Level Winnipeg Center
Sun 12:05:08 AM 54.3167 -98.6000 311° West 510 587 32,000  Level Winnipeg Center
Sun 12:06:08 AM 54.4000 -98.7667 311° West 510 587 32,000  Level Winnipeg Center
Sun 12:07:08 AM 54.4833 -98.9833 304° West 510 587 32,000  Level Winnipeg Center
Sun 12:08:08 AM 54.5667 -99.1500 311° West 500 575 32,000  Level Winnipeg Center
Sun 12:09:08 AM 54.6667 -99.3667 309° West 500 575 32,000  Level Winnipeg Center
Sun 12:10:08 AM 54.7333 -99.5500 302° West 510 587 32,000  Level Winnipeg Center
Sun 12:11:08 AM 54.8333 -99.7500 311° West 510 587 32,000  Level Winnipeg Center
Sun 12:12:08 AM 54.9167 -99.9333 308° West 500 575 32,000  Level Winnipeg Center
Sun 12:13:08 AM 55.0000 -100.1500 304° West 500 575 32,000  Level Winnipeg Center
Sun 12:14:09 AM 55.0667 -100.3333 302° West 500 575 32,000  Level Winnipeg Center
Sun 12:15:08 AM 55.1667 -100.5333 311° West 500 575 32,000  Level Winnipeg Center
Sun 12:16:08 AM 55.2500 -100.7167 309° West 500 575 32,000  Level Winnipeg Center
Sun 12:17:08 AM 55.3167 -100.9000 303° West 490 564 32,000  Level Winnipeg Center
Sun 12:18:09 AM 55.4000 -101.1167 304° West 500 575 32,000  Level Winnipeg Center
Sun 12:19:08 AM 55.4833 -101.3000 309° West 490 564 32,000  Level Winnipeg Center
Sun 12:20:08 AM 55.5667 -101.5167 304° West 490 564 32,000  Level Winnipeg Center
Sun 12:21:08 AM 55.6500 -101.7167 306° West 500 575 32,000  Level Winnipeg Center
Sun 12:22:08 AM 55.7167 -101.9000 303° West 490 564 32,000  Level Winnipeg Center
Sun 12:23:09 AM 55.8167 -102.1167 309° West 490 564 32,000  Level Winnipeg Center
Sun 12:24:08 AM 55.8833 -102.3333 299° West 490 564 32,000  Level Winnipeg Center
Sun 12:25:08 AM 55.9667 -102.5333 307° West 490 564 32,000  Level Winnipeg Center
Sun 12:26:08 AM 56.0333 -102.7167 303° West 490 564 32,000  Level Winnipeg Center
Sun 12:27:08 AM 56.1167 -102.9167 307° West 490 564 32,000  Level Winnipeg Center
Sun 12:28:09 AM 56.2000 -103.1333 305° West 490 564 32,000  Level Winnipeg Center
Sun 12:29:09 AM 56.2833 -103.3333 307° West 500 575 32,000  Level Winnipeg Center
Sun 12:30:08 AM 56.3500 -103.5500 299° West 490 564 32,000  Level Winnipeg Center
Sun 12:31:08 AM 56.4333 -103.7500 307° West 500 575 32,000  Level Winnipeg Center
Sun 12:32:08 AM 56.5000 -103.9333 303° West 490 564 32,000  Level Winnipeg Center
Sun 12:33:08 AM 56.5833 -104.1667 303° West 500 575 32,000  Level Winnipeg Center
Sun 12:34:09 AM 56.6667 -104.3667 307° West 500 575 32,000  Level Winnipeg Center
Sun 12:35:08 AM 56.7333 -104.6000 298° West 500 575 32,000  Level Winnipeg Center
Sun 12:36:08 AM 56.8167 -104.8000 307° West 500 575 32,000  Level Winnipeg Center
Sun 12:37:08 AM 56.8833 -105.0000 301° West 510 587 32,000  Level Winnipeg Center
Sun 12:38:08 AM 56.9667 -105.2333 303° West 510 587 32,000  Level Winnipeg Center
Sun 12:39:09 AM 57.0500 -105.4667 303° West 510 587 32,000  Level Winnipeg Center
Sun 12:40:08 AM 57.1167 -105.6667 302° West 510 587 32,000  Level Winnipeg Center
Sun 12:41:08 AM 57.2000 -105.9000 303° West 510 587 32,000  Level Winnipeg Center
Sun 12:42:08 AM 57.2667 -106.1000 302° West 510 587 32,000  Level Winnipeg Center
Sun 12:43:08 AM 57.3500 -106.3333 304° West 510 587 32,000  Level Winnipeg Center
Sun 12:44:08 AM 57.4167 -106.5833 296° West 520 598 32,000  Level Winnipeg Center
Sun 12:45:08 AM 57.4833 -106.7833 302° West 520 598 32,000  Level Winnipeg Center
Sun 12:46:08 AM 57.5667 -107.0167 304° West 520 598 32,000  Level Winnipeg Center
Sun 12:47:08 AM 57.6333 -107.2333 300° West 520 598 32,000  Level Winnipeg Center
Sun 12:48:09 AM 57.7167 -107.4833 302° West 520 598 32,000  Level Winnipeg Center
Sun 12:49:09 AM 57.7833 -107.7167 298° West 520 598 32,000  Level Winnipeg Center
Sun 12:50:09 AM 57.8667 -107.9333 306° West 520 598 32,000  Level Winnipeg Center
Sun 12:51:09 AM 57.9333 -108.1667 298° West 520 598 32,000  Level Winnipeg Center
Sun 12:52:09 AM 58.0167 -108.4167 302° West 520 598 32,000  Level Winnipeg Center
Sun 12:53:09 AM 58.1000 -108.6667 302° West 530 610 32,000  Level Winnipeg Center
Sun 12:54:09 AM 58.1500 -108.8833 294° West 520 598 32,000  Level Winnipeg Center
Sun 12:55:09 AM 58.2333 -109.1333 302° West 520 598 32,000 300 Level Winnipeg Center
Sun 12:56:09 AM 58.3000 -109.3833 297° West 520 598 32,600 850 Climbing Winnipeg Center
Sun 12:57:09 AM 58.3667 -109.6333 297° West 530 610 33,700 700 Climbing Winnipeg Center
Sun 12:58:09 AM 58.4500 -109.8833 303° West 520 598 34,000 150 Climbing Winnipeg Center
Sun 12:59:09 AM 58.5167 -110.1000 301° West 520 598 34,000  Level Winnipeg Center
Sun 01:00:09 AM 58.5833 -110.3167 301° West 520 598 34,000  Level Winnipeg Center
Sun 01:01:09 AM 58.6500 -110.5833 296° West 520 598 34,000  Level Winnipeg Center
Sun 01:02:09 AM 58.7167 -110.8333 297° West 520 598 34,000  Level Winnipeg Center
Sun 01:03:08 AM 58.7833 -111.0833 297° West 510 587 34,000  Level Winnipeg Center
Sun 01:04:09 AM 58.8500 -111.3000 301° West 510 587 34,000  Level Winnipeg Center
Sun 01:05:08 AM 58.9167 -111.5667 296° West 510 587 34,000  Level Winnipeg Center
Sun 01:06:08 AM 58.9833 -111.7833 301° West 510 587 34,000  Level Winnipeg Center
Sun 01:07:08 AM 59.0500 -112.0500 296° West 510 587 34,000  Level Winnipeg Center
Sun 01:08:08 AM 59.1000 -112.3000 291° West 510 587 34,000  Level Winnipeg Center
Sun 01:09:08 AM 59.1833 -112.5333 305° West 510 587 34,000  Level Winnipeg Center
Sun 01:10:08 AM 59.2333 -112.8000 290° West 510 587 34,000  Level Winnipeg Center
Sun 01:11:08 AM 59.3000 -113.0167 301° West 510 587 34,000  Level Winnipeg Center
Sun 01:12:08 AM 59.3667 -113.2833 296° West 510 587 34,000  Level Winnipeg Center
Sun 01:13:08 AM 59.4167 -113.5167 293° West 500 575 34,000  Level Winnipeg Center
Sun 01:14:18 AM 59.4833 -113.7667 298° West 490 564 34,000  Level Edmonton Center
Sun 01:15:18 AM 59.5333 -114.0167 292° West 490 564 34,000  Level Edmonton Center
Sun 01:16:18 AM 59.5667 -114.2667 285° West 480 552 34,000  Level Edmonton Center
Sun 01:17:18 AM 59.6000 -114.5333 284° West 470 541 34,000  Level Edmonton Center
Sun 01:18:18 AM 59.6167 -114.7833 278° West 470 541 34,000  Level Edmonton Center
Sun 01:19:18 AM 59.6500 -115.0333 285° West 470 541 34,000  Level Edmonton Center
Sun 01:20:18 AM 59.6667 -115.3167 277° West 480 552 34,000  Level Edmonton Center
Sun 01:21:18 AM 59.7000 -115.5833 284° West 490 564 34,000  Level Edmonton Center
Sun 01:22:18 AM 59.7333 -115.8667 283° West 490 564 34,000  Level Edmonton Center
Sun 01:23:18 AM 59.7833 -116.1333 291° West 500 575 34,000  Level Edmonton Center
Sun 01:24:18 AM 59.8167 -116.3833 285° West 490 564 34,000  Level Edmonton Center
Sun 01:25:18 AM 59.8667 -116.6333 292° West 490 564 34,000  Level Edmonton Center
Sun 01:26:18 AM 59.9333 -116.9000 297° West 500 575 34,000  Level Edmonton Center
Sun 01:27:18 AM 60.0000 -117.1333 300° West 500 575 34,000  Level Edmonton Center
Sun 01:28:18 AM 60.0333 -117.3833 285° West 500 575 34,000  Level Edmonton Center
Sun 01:29:18 AM 60.1000 -117.6500 297° West 490 564 34,000  Level Edmonton Center
Sun 01:30:18 AM 60.1667 -117.8833 300° West 500 575 34,000  Level Edmonton Center
Sun 01:31:18 AM 60.2167 -118.1500 291° West 500 575 34,000  Level Edmonton Center
Sun 01:32:18 AM 60.2667 -118.4167 291° West 490 564 34,000  Level Edmonton Center
Sun 01:33:18 AM 60.3333 -118.6833 297° West 490 564 34,000  Level Edmonton Center
Sun 01:34:18 AM 60.3833 -118.9167 294° West 490 564 34,000  Level Edmonton Center
Sun 01:35:18 AM 60.4333 -119.2167 289° West 490 564 34,000  Level Edmonton Center
Sun 01:36:18 AM 60.4833 -119.4500 294° West 490 564 34,000  Level Edmonton Center
Sun 01:37:18 AM 60.5333 -119.7333 290° West 490 564 34,000  Level Edmonton Center
Sun 01:38:18 AM 60.6000 -119.9667 300° West 490 564 34,000  Level Edmonton Center
Sun 01:39:18 AM 60.6500 -120.2333 291° West 490 564 34,000  Level Edmonton Center
Sun 01:40:18 AM 60.7000 -120.5000 291° West 480 552 34,000  Level Edmonton Center
Sun 01:41:18 AM 60.7500 -120.7500 292° West 480 552 34,000  Level Edmonton Center
Sun 01:42:18 AM 60.8000 -121.0167 291° West 490 564 34,000  Level Edmonton Center
Sun 01:43:18 AM 60.8500 -121.2667 292° West 470 541 34,000  Level Edmonton Center
Sun 01:44:18 AM 60.9000 -121.5333 291° West 480 552 34,000  Level Edmonton Center
Sun 01:45:18 AM 60.9333 -121.7667 286° West 470 541 34,000  Level Edmonton Center
Sun 01:46:18 AM 61.0000 -122.0167 299° West 470 541 34,000  Level Edmonton Center
Sun 01:48:00 AM 61.0603 -122.4729 285° West  Level FlightAware Approximate
Sun 01:55:00 AM 61.2924 -124.3692 285° West  Level FlightAware Approximate
Sun 01:56:00 AM 61.3234 -124.6423 283° West  Level FlightAware Approximate
Sun 01:57:00 AM 61.3538 -124.9160 283° West  Level FlightAware Approximate
Sun 01:58:00 AM 61.3837 -125.1902 283° West  Level FlightAware Approximate
Sun 01:59:00 AM 61.4130 -125.4649 283° West  Level FlightAware Approximate
Sun 02:00:00 AM 61.4417 -125.7401 282° West  Level FlightAware Approximate
Sun 02:01:00 AM 61.4705 -126.0164 284° West  Level FlightAware Approximate
Sun 02:02:00 AM 61.5019 -126.2909 284° West  Level FlightAware Approximate
Sun 02:03:00 AM 61.5327 -126.5660 283° West  Level FlightAware Approximate
Sun 02:04:00 AM 61.5630 -126.8416 283° West  Level FlightAware Approximate
Sun 02:05:00 AM 61.5927 -127.1177 283° West  Level FlightAware Approximate
Sun 02:06:00 AM 61.6218 -127.3943 283° West  Level FlightAware Approximate
Sun 02:07:00 AM 61.6504 -127.6715 282° West  Level FlightAware Approximate
Sun 02:08:00 AM 61.6784 -127.9492 282° West  Level FlightAware Approximate
Sun 02:09:00 AM 61.7059 -128.2274 282° West  Level FlightAware Approximate
Sun 02:10:00 AM 61.7328 -128.5060 282° West  Level FlightAware Approximate
Sun 02:11:00 AM 61.7591 -128.7852 281° West  Level FlightAware Approximate
Sun 02:12:00 AM 61.7849 -129.0648 281° West  Level FlightAware Approximate
Sun 02:13:00 AM 61.8101 -129.3448 281° West  Level FlightAware Approximate
Sun 02:14:00 AM 61.8347 -129.6254 281° West  Level FlightAware Approximate
Sun 02:15:00 AM 61.8588 -129.9064 280° West  Level FlightAware Approximate
Sun 02:16:00 AM 61.8808 -130.1883 279° West  Level FlightAware Approximate
Sun 02:17:00 AM 61.9014 -130.4709 279° West  Level FlightAware Approximate
Sun 02:18:00 AM 61.9215 -130.7539 279° West  Level FlightAware Approximate
Sun 02:19:00 AM 61.9409 -131.0372 278° West  Level FlightAware Approximate
Sun 02:20:00 AM 61.9598 -131.3209 278° West  Level FlightAware Approximate
Sun 02:21:00 AM 61.9781 -131.6050 278° West  Level FlightAware Approximate
Sun 02:22:00 AM 61.9959 -131.8894 278° West  Level FlightAware Approximate
Sun 02:23:00 AM 62.0130 -132.1741 277° West  Level FlightAware Approximate
Sun 02:24:00 AM 62.0296 -132.4591 277° West  Level FlightAware Approximate
Sun 02:25:00 AM 62.0456 -132.7444 277° West  Level FlightAware Approximate
Sun 02:26:00 AM 62.0609 -133.0301 277° West  Level FlightAware Approximate
Sun 02:27:00 AM 62.0757 -133.3160 276° West  Level FlightAware Approximate
Sun 02:28:00 AM 62.0899 -133.6022 276° West  Level FlightAware Approximate
Sun 02:29:00 AM 62.1035 -133.8886 276° West  Level FlightAware Approximate
Sun 02:30:00 AM 62.1165 -134.1753 276° West  Level FlightAware Approximate
Sun 02:31:00 AM 62.1290 -134.4623 275° West  Level FlightAware Approximate
Sun 02:32:00 AM 62.1408 -134.7494 275° West  Level FlightAware Approximate
Sun 02:33:00 AM 62.1520 -135.0368 275° West  Level FlightAware Approximate
Sun 02:34:00 AM 62.1627 -135.3244 275° West  Level FlightAware Approximate
Sun 02:35:00 AM 62.1727 -135.6122 274° West  Level FlightAware Approximate
Sun 02:36:00 AM 62.1821 -135.9002 274° West  Level FlightAware Approximate
Sun 02:37:00 AM 62.1910 -136.1883 274° West  Level FlightAware Approximate
Sun 02:38:00 AM 62.1992 -136.4766 274° West  Level FlightAware Approximate
Sun 02:39:00 AM 62.2069 -136.7651 273° West  Level FlightAware Approximate
Sun 02:40:00 AM 62.2139 -137.0537 273° West  Level FlightAware Approximate
Sun 02:41:00 AM 62.2204 -137.3425 273° West  Level FlightAware Approximate
Sun 02:42:00 AM 62.2262 -137.6313 273° West  Level FlightAware Approximate
Sun 02:43:00 AM 62.2315 -137.9203 272° West  Level FlightAware Approximate
Sun 02:44:00 AM 62.2361 -138.2093 272° West  Level FlightAware Approximate
Sun 02:45:00 AM 62.2401 -138.4984 272° West  Level FlightAware Approximate
Sun 02:46:00 AM 62.2436 -138.7877 272° West  Level FlightAware Approximate
Sun 02:47:00 AM 62.2464 -139.0769 271° West  Level FlightAware Approximate
Sun 02:48:00 AM 62.2487 -139.3663 271° West  Level FlightAware Approximate
Sun 02:49:00 AM 62.2503 -139.6556 271° West  Level FlightAware Approximate
Sun 02:50:00 AM 62.2513 -139.9450 271° West  Level FlightAware Approximate
Sun 02:51:00 AM 62.2518 -140.2344 270° West  Level FlightAware Approximate
Sun 02:52:00 AM 62.2516 -140.5238 270° West  Level FlightAware Approximate
Sun 02:53:00 AM 62.2508 -140.8132 270° West  Level FlightAware Approximate
Sun 02:54:00 AM 62.2493 -141.1025 269° West  Level FlightAware Approximate
Sun 02:55:00 AM 62.2469 -141.3918 269° West  Level FlightAware Approximate
Sun 02:56:00 AM 62.2439 -141.6811 269° West  Level FlightAware Approximate
Sun 02:56:55 AM 62.2333 -141.6000 267° West 500 575 34,000  Level Anchorage Center
Sun 02:57:00 AM 62.2403 -141.9703 269° West  Level FlightAware Approximate
Sun 02:57:55 AM 62.2333 -141.8667 270° West 480 552 34,000  Level Anchorage Center
Sun 02:58:00 AM 62.2360 -142.2594 268° West  Level FlightAware Approximate
Sun 02:58:55 AM 62.2333 -142.1833 270° West 500 575 34,000  Level Anchorage Center
Sun 02:59:00 AM 62.2312 -142.5485 268° West  Level FlightAware Approximate
Sun 02:59:55 AM 62.2333 -142.4667 270° West 490 564 34,000  Level Anchorage Center
Sun 03:00:00 AM 62.2258 -142.8374 268° West  Level FlightAware Approximate
Sun 03:00:56 AM 62.2167 -142.7500 263° West 480 552 34,000  Level Anchorage Center
Sun 03:01:00 AM 62.2198 -143.1262 268° West  Level FlightAware Approximate
Sun 03:01:56 AM 62.2167 -143.0333 270° West 480 552 34,000  Level Anchorage Center
Sun 03:02:00 AM 62.2132 -143.4149 267° West  Level FlightAware Approximate
Sun 03:02:55 AM 62.2167 -143.3167 270° West 480 552 34,000  Level Anchorage Center
Sun 03:03:55 AM 62.2000 -143.6000 263° West 470 541 34,000  Level Anchorage Center
Sun 03:04:56 AM 62.2000 -143.8833 270° West 470 541 34,000  Level Anchorage Center
Sun 03:05:56 AM 62.1833 -144.1167 261° West 470 541 34,000  Level Anchorage Center
Sun 03:06:56 AM 62.1833 -144.4500 270° West 470 541 34,000  Level Anchorage Center
Sun 03:07:56 AM 62.1667 -144.7333 263° West 480 552 34,000  Level Anchorage Center
Sun 03:13:22 AM 62.2000 -146.3780 263° West 494 568 34,000  Level FlightAware ADS-B
Sun 03:14:02 AM 62.2090 -146.5750 276° West 497 572 34,000  Level FlightAware ADS-B
Sun 03:14:42 AM 62.2170 -146.7700 275° West 499 574 34,000  Level FlightAware ADS-B
Sun 03:15:26 AM 62.2260 -146.9840 275° West 502 578 34,000  Level FlightAware ADS-B
Sun 03:16:10 AM 62.2340 -147.2010 275° West 504 580 34,000  Level FlightAware ADS-B
Sun 03:16:50 AM 62.2410 -147.4040 274° West 505 581 34,000  Level FlightAware ADS-B
Sun 03:17:26 AM 62.2480 -147.5830 275° West 507 583 34,000  Level FlightAware ADS-B
Sun 03:18:07 AM 62.2540 -147.7870 274° West 509 586 34,000  Level FlightAware ADS-B
Sun 03:18:50 AM 62.2610 -148.0080 274° West 510 587 34,000  Level FlightAware ADS-B
Sun 03:19:30 AM 62.2670 -148.2070 274° West 510 587 34,000  Level FlightAware ADS-B
Sun 03:19:54 AM 62.2710 -148.3300 274° West 510 587 34,000  Level FlightAware ADS-B
Sun 03:20:43 AM 62.2780 -148.5710 274° West 513 590 34,000  Level FlightAware ADS-B
Sun 03:21:22 AM 62.2830 -148.7750 273° West 513 590 34,000  Level FlightAware ADS-B
Sun 03:22:08 AM 62.2880 -149.0070 273° West 514 592 34,000  Level FlightAware ADS-B
Sun 03:22:56 AM 62.2930 -149.2550 273° West 515 593 34,000  Level FlightAware ADS-B
Sun 03:23:34 AM 62.2960 -149.4470 272° West 515 593 34,000  Level FlightAware ADS-B
Sun 03:24:16 AM 62.2990 -149.6600 272° West 515 593 34,000  Level FlightAware ADS-B
Sun 03:24:52 AM 62.3020 -149.8450 272° West 515 593 34,000  Level FlightAware ADS-B
Sun 03:25:34 AM 62.3050 -150.0620 272° West 517 595 34,000  Level FlightAware ADS-B
Sun 03:26:16 AM 62.3010 -150.2750 268° West 519 597 34,000  Level FlightAware ADS-B
Sun 03:27:00 AM 62.2930 -150.5040 266° West 520 598 34,000  Level FlightAware ADS-B
Sun 03:27:44 AM 62.2840 -150.7260 265° West 520 598 34,000  Level FlightAware ADS-B
Sun 03:28:24 AM 62.2750 -150.9340 265° West 519 597 34,000  Level FlightAware ADS-B
Sun 03:29:08 AM 62.2640 -151.1560 264° West 516 594 34,000  Level FlightAware ADS-B
Sun 03:29:40 AM 62.2570 -151.3190 265° West 515 593 34,000  Level FlightAware ADS-B
Sun 03:30:24 AM 62.2460 -151.5440 264° West 513 590 34,000  Level FlightAware ADS-B
Sun 03:31:04 AM 62.2360 -151.7430 264° West 513 590 34,000  Level FlightAware ADS-B
Sun 03:31:40 AM 62.2270 -151.9290 264° West 514 592 34,000  Level FlightAware ADS-B
Sun 03:32:20 AM 62.2160 -152.1300 263° West 513 590 34,000  Level FlightAware ADS-B
Sun 03:33:04 AM 62.2050 -152.3490 264° West 512 589 34,000  Level FlightAware ADS-B
Sun 03:33:45 AM 62.1930 -152.5540 263° West 512 589 34,000  Level FlightAware ADS-B
Sun 03:34:29 AM 62.1800 -152.7780 263° West 513 590 34,000  Level FlightAware ADS-B
Sun 03:35:09 AM 62.1680 -152.9680 262° West 513 590 34,000 143 Level FlightAware ADS-B
Sun 03:35:53 AM 62.1540 -153.1970 263° West 514 592 34,200 632 Climbing FlightAware ADS-B
Sun 03:36:25 AM 62.1440 -153.3580 262° West 514 592 34,800 1,091 Climbing FlightAware ADS-B
Sun 03:37:10 AM 62.1290 -153.5830 262° West 514 592 35,600 857 Climbing FlightAware ADS-B
Sun 03:37:49 AM 62.1150 -153.7810 261° West 514 592 36,000 289 Climbing FlightAware ADS-B
Sun 03:38:33 AM 62.1000 -153.9990 262° West 513 590 36,000  Level FlightAware ADS-B
Sun 03:39:15 AM 62.0850 -154.2100 261° West 511 588 36,000  Level FlightAware ADS-B
Sun 03:39:55 AM 62.0700 -154.4120 261° West 511 588 36,000  Level FlightAware ADS-B
Sun 03:40:35 AM 62.0560 -154.6060 261° West 511 588 36,000  Level FlightAware ADS-B
Sun 03:41:23 AM 62.0370 -154.8470 261° West 511 588 36,000  Level FlightAware ADS-B
Sun 03:41:47 AM 62.0280 -154.9670 261° West 511 588 36,000  Level FlightAware ADS-B
Sun 03:42:42 AM 62.0070 -155.2360 261° West 511 588 36,000  Level FlightAware ADS-B
Sun 03:43:35 AM 61.9870 -155.4790 260° West 511 588 36,000  Level FlightAware ADS-B
Sun 03:44:17 AM 61.9690 -155.7040 260° West 511 588 36,000  Level FlightAware ADS-B
Sun 03:44:55 AM 61.9540 -155.8630 259° West 511 588 36,000  Level FlightAware ADS-B
Sun 03:45:43 AM 61.9350 -156.0650 259° West 511 588 36,000  Level FlightAware ADS-B
Sun 03:46:19 AM 61.9220 -156.2160 260° West 511 588 36,000  Level FlightAware ADS-B
Sun 03:47:07 AM 61.9030 -156.4170 259° West 511 588 36,000  Level FlightAware ADS-B
Sun 03:47:44 AM 61.8890 -156.5720 259° West 511 588 36,000  Level FlightAware ADS-B
Sun 03:48:32 AM 61.8710 -156.7720 259° West 511 588 36,000  Level FlightAware ADS-B
Sun 03:49:08 AM 61.8570 -156.9230 259° West 511 588 36,000  Level FlightAware ADS-B
Sun 03:49:56 AM 61.8380 -157.1240 259° West 511 588 36,000  Level FlightAware ADS-B
Sun 03:50:32 AM 61.8240 -157.2740 259° West 511 588 36,000  Level FlightAware ADS-B
Sun 03:51:20 AM 61.8060 -157.4750 259° West 511 588 36,000  Level FlightAware ADS-B
Sun 03:51:56 AM 61.7920 -157.6250 259° West 511 588 36,000  Level FlightAware ADS-B
Sun 03:52:45 AM 61.7730 -157.8290 259° West 511 588 36,000  Level FlightAware ADS-B
Sun 03:53:19 AM 61.7600 -157.9710 259° West 511 588 36,000  Level FlightAware ADS-B
Sun 03:54:08 AM 61.7410 -158.1750 259° West 511 588 36,000  Level FlightAware ADS-B
Sun 03:54:59 AM 61.6833 -158.6667 259° West 490 564 36,000  Level Anchorage Center
Sun 03:56:00 AM 61.6500 -158.9500 256° West 500 575 36,000  Level Anchorage Center
Sun 03:57:00 AM 61.6167 -159.2500 257° West 490 564 36,000  Level Anchorage Center
Sun 03:58:00 AM 61.5833 -159.5333 256° West 500 575 36,000  Level Anchorage Center
Sun 03:59:00 AM 61.5667 -159.8000 263° West 490 564 36,000  Level Anchorage Center
Sun 04:00:00 AM 61.5167 -160.0833 250° West 490 564 36,000  Level Anchorage Center
Sun 04:01:00 AM 61.4833 -160.3667 256° West 490 564 36,000  Level Anchorage Center
Sun 04:02:00 AM 61.4500 -160.6500 256° West 490 564 36,000  Level Anchorage Center
Sun 04:03:00 AM 61.4000 -160.9333 250° West 490 564 36,000  Level Anchorage Center
Sun 04:04:00 AM 61.3667 -161.2000 255° West 490 564 36,000  Level Anchorage Center
Sun 04:05:00 AM 61.3333 -161.4833 256° West 480 552 36,000  Level Anchorage Center
Sun 04:06:00 AM 61.2833 -161.7667 250° West 500 575 36,000  Level Anchorage Center
Sun 04:07:00 AM 61.2500 -162.0333 256° West 480 552 36,000  Level Anchorage Center
Sun 04:08:00 AM 61.2167 -162.3000 256° West 490 564 36,000  Level Anchorage Center
Sun 04:09:00 AM 61.1667 -162.5833 250° West 500 575 36,000  Level Anchorage Center
Sun 04:10:01 AM 61.1333 -162.8500 256° West 480 552 36,000  Level Anchorage Center
Sun 04:11:01 AM 61.0833 -163.1167 249° West 490 564 36,000  Level Anchorage Center
Sun 04:12:00 AM 61.0500 -163.4000 256° West 490 564 36,000  Level Anchorage Center
Sun 04:13:01 AM 61.0167 -163.6667 256° West 490 564 36,000  Level Anchorage Center
Sun 04:14:01 AM 60.9667 -163.9500 250° West 490 564 36,000  Level Anchorage Center
Sun 04:16:06 AM 60.8833 -164.5500 254° West 490 564 36,000  Level Anchorage Center
Sun 04:18:06 AM 60.8000 -165.0833 252° West 500 575 36,000  Level Anchorage Center
Sun 04:19:06 AM 60.7667 -165.3000 253° West 490 564 36,000  Level Anchorage Center
Sun 04:20:06 AM 60.7167 -165.5833 250° West 490 564 36,000  Level Anchorage Center
Sun 04:21:06 AM 60.6833 -165.8500 256° West 490 564 36,000  Level Anchorage Center
Sun 04:22:06 AM 60.6333 -166.1167 249° West 490 564 36,000  Level Anchorage Center
Sun 04:23:06 AM 60.5833 -166.3833 249° West 490 564 36,000  Level Anchorage Center
Sun 04:24:06 AM 60.5500 -166.6500 256° West 490 564 36,000  Level Anchorage Center
Sun 04:25:06 AM 60.5000 -166.9000 248° West 490 564 36,000  Level Anchorage Center
Sun 04:26:06 AM 60.4500 -167.1667 249° West 490 564 36,000  Level Anchorage Center
Sun 04:27:06 AM 60.4000 -167.4333 249° West 480 552 36,000  Level Anchorage Center
Sun 04:28:06 AM 60.3667 -167.7000 256° West 490 564 36,000  Level Anchorage Center
Sun 04:29:07 AM 60.3167 -167.9500 248° West 480 552 36,000  Level Anchorage Center
Sun 04:30:07 AM 60.2667 -168.2167 249° West 480 552 36,000  Level Anchorage Center
Sun 04:31:07 AM 60.2167 -168.4667 248° West 490 564 36,000  Level Anchorage Center
Sun 04:32:07 AM 60.1667 -168.7167 248° West 480 552 36,000  Level Anchorage Center
Sun 04:33:07 AM 60.1167 -168.9667 248° West 480 552 36,000  Level Anchorage Center
Sun 04:34:07 AM 60.0667 -169.2333 250° West 480 552 36,000  Level Anchorage Center
Sun 04:35:07 AM 60.0333 -169.4833 255° West 480 552 36,000  Level Anchorage Center
Sun 04:36:07 AM 59.9833 -169.7333 248° West 480 552 36,000  Level Anchorage Center
Sun 04:37:07 AM 59.9333 -169.9833 248° West 490 564 36,000  Level Anchorage Center
Sun 04:38:07 AM 59.8833 -170.2333 248° West 480 552 36,000  Level Anchorage Center
Sun 04:39:07 AM 59.8333 -170.5000 250° West 490 564 36,000  Level Anchorage Center
Sun 04:40:07 AM 59.7833 -170.7500 248° West 480 552 36,000  Level Anchorage Center
Sun 04:41:08 AM 59.7333 -171.0000 248° West 480 552 36,000  Level Anchorage Center
Sun 04:42:07 AM 59.6833 -171.2333 247° West 470 541 36,000  Level Anchorage Center
Sun 04:43:08 AM 59.6167 -171.4833 242° Southwest 480 552 36,000  Level Anchorage Center
Sun 04:44:08 AM 59.5667 -171.7167 247° West 470 541 36,000  Level Anchorage Center
Sun 04:45:08 AM 59.5167 -171.9667 249° West 470 541 36,000  Level Anchorage Center
Sun 04:46:08 AM 59.4667 -172.2000 247° West 470 541 36,000  Level Anchorage Center
Sun 04:47:08 AM 59.4167 -172.4333 247° West 470 541 36,000  Level Anchorage Center
Sun 04:48:08 AM 59.3667 -172.6833 249° West 480 552 36,000  Level Anchorage Center
Sun 04:49:08 AM 59.3167 -172.9167 247° West 460 529 36,000  Level Anchorage Center
Sun 04:50:08 AM 59.2667 -173.1667 249° West 470 541 36,000  Level Anchorage Center
Sun 04:51:08 AM 59.2167 -173.4000 247° West 470 541 36,000  Level Anchorage Center
Sun 04:52:08 AM 59.1667 -173.6333 247° West 470 541 36,000  Level Anchorage Center
Sun 04:53:08 AM 59.1167 -173.8667 247° West 470 541 36,000  Level Anchorage Center
Sun 04:54:08 AM 59.0667 -174.1000 247° West 470 541 36,000  Level Anchorage Center
Sun 04:55:08 AM 59.0167 -174.3333 247° West 460 529 36,000  Level Anchorage Center
Sun 04:56:08 AM 58.9667 -174.5667 248° West 470 541 36,000  Level Anchorage Center
Sun 04:57:08 AM 58.9167 -174.8000 248° West 460 529 36,000  Level Anchorage Center
Sun 04:58:08 AM 58.8667 -175.0333 248° West 460 529 36,000  Level Anchorage Center
Sun 04:59:09 AM 58.8167 -175.2667 248° West 460 529 36,000  Level Anchorage Center
Sun 05:00:09 AM 58.7667 -175.5000 248° West 470 541 36,000  Level Anchorage Center
Sun 05:01:09 AM 58.7167 -175.7167 246° West 470 541 36,000  Level Anchorage Center
Sun 05:02:09 AM 58.6667 -175.9500 248° West 460 529 36,000  Level Anchorage Center
Sun 05:03:09 AM 58.6000 -176.1667 240° Southwest 460 529 36,000  Level Anchorage Center
Sun 05:04:09 AM 58.5500 -176.4000 248° West 460 529 36,000  Level Anchorage Center
Sun 05:05:09 AM 58.5000 -176.6167 246° West 450 518 36,000  Level Anchorage Center
Sun 05:06:09 AM 58.4333 -176.8500 241° Southwest 460 529 36,000  Level Anchorage Center
Sun 05:07:09 AM 58.4000 -177.0167 249° West 450 518 36,000  Level Anchorage Center
Sun 05:08:09 AM 58.3500 -177.2500 248° West 460 529 36,000 27 Level Anchorage Center
Sun 05:10:00 AM 58.2423 -177.6756 244° Southwest  Level FlightAware Approximate
Sun 05:17:00 AM 57.8222 -179.2625 244° Southwest  Level FlightAware Approximate
Sun 05:18:00 AM 57.7606 -179.4861 243° Southwest  Level FlightAware Approximate
Sun 05:19:00 AM 57.6985 -179.7090 243° Southwest  Level FlightAware Approximate
Sun 05:20:00 AM 57.6362 -179.9311 242° Southwest  Level FlightAware Approximate
Sun 05:21:00 AM 57.5733 179.8475 242° Southwest  Level FlightAware Approximate
Sun 05:22:00 AM 57.5102 179.6269 242° Southwest  Level FlightAware Approximate
Sun 05:23:00 AM 57.4466 179.4070 242° Southwest  Level FlightAware Approximate
Sun 05:24:00 AM 57.3827 179.1880 242° Southwest  Level FlightAware Approximate
Sun 05:25:00 AM 57.3183 178.9697 241° Southwest  Level FlightAware Approximate
Sun 05:26:00 AM 57.2537 178.7522 241° Southwest  Level FlightAware Approximate
Sun 05:27:00 AM 57.1886 178.5354 241° Southwest  Level FlightAware Approximate
Sun 05:28:00 AM 57.1231 178.3194 241° Southwest  Level FlightAware Approximate
Sun 05:29:00 AM 57.0573 178.1042 241° Southwest  Level FlightAware Approximate
Sun 05:30:00 AM 56.9912 177.8897 241° Southwest  Level FlightAware Approximate
Sun 05:31:00 AM 56.9246 177.6760 240° Southwest  Level FlightAware Approximate
Sun 05:32:00 AM 56.8577 177.4630 240° Southwest  Level FlightAware Approximate
Sun 05:33:00 AM 56.7905 177.2508 240° Southwest  Level FlightAware Approximate
Sun 05:34:00 AM 56.7231 177.0392 240° Southwest  Level FlightAware Approximate
Sun 05:35:00 AM 56.6553 176.8283 240° Southwest  Level FlightAware Approximate
Sun 05:36:00 AM 56.5872 176.6182 240° Southwest  Level FlightAware Approximate
Sun 05:37:00 AM 56.5187 176.4088 239° Southwest  Level FlightAware Approximate
Sun 05:38:00 AM 56.4498 176.2002 239° Southwest  Level FlightAware Approximate
Sun 05:39:00 AM 56.3806 175.9924 239° Southwest  Level FlightAware Approximate
Sun 05:40:00 AM 56.3111 175.7853 239° Southwest  Level FlightAware Approximate
Sun 05:41:00 AM 56.2412 175.5790 239° Southwest  Level FlightAware Approximate
Sun 05:42:00 AM 56.1710 175.3734 239° Southwest  Level FlightAware Approximate
Sun 05:43:00 AM 56.1004 175.1686 238° Southwest  Level FlightAware Approximate
Sun 05:44:00 AM 56.0295 174.9645 238° Southwest  Level FlightAware Approximate
Sun 05:44:51 AM 56.1000 175.1167 237° Southwest 490 564 37,000  Level Anchorage Center
Sun 05:45:00 AM 55.9583 174.7612 238° Southwest  Level FlightAware Approximate
Sun 05:45:51 AM 56.0333 174.9167 239° Southwest 500 575 37,000  Level Anchorage Center
Sun 05:46:00 AM 55.8867 174.5586 238° Southwest  Level FlightAware Approximate
Sun 05:46:52 AM 55.9500 174.7000 236° Southwest 490 564 37,000  Level Anchorage Center
Sun 05:47:00 AM 55.8148 174.3568 238° Southwest  Level FlightAware Approximate
Sun 05:47:51 AM 55.8833 174.5167 237° Southwest 490 564 37,000  Level Anchorage Center
Sun 05:48:00 AM 55.7426 174.1557 238° Southwest  Level FlightAware Approximate
Sun 05:48:52 AM 55.8167 174.3000 241° Southwest 480 552 37,000  Level Anchorage Center
Sun 05:49:00 AM 55.6700 173.9554 237° Southwest  Level FlightAware Approximate
Sun 05:49:52 AM 55.7333 174.0833 236° Southwest 480 552 37,000  Level Anchorage Center
Sun 05:50:00 AM 55.5972 173.7558 237° Southwest  Level FlightAware Approximate
Sun 05:50:52 AM 55.6667 173.9000 237° Southwest 490 564 37,000  Level Anchorage Center
Sun 05:51:52 AM 55.5833 173.6833 236° Southwest 490 564 37,000  Level Anchorage Center
Sun 05:52:52 AM 55.5167 173.5167 235° Southwest 490 564 37,000  Level Anchorage Center
Sun 05:53:52 AM 55.4333 173.3000 236° Southwest 490 564 37,000  Level Anchorage Center
Sun 05:54:52 AM 55.3667 173.1167 237° Southwest 490 564 37,000  Level Anchorage Center
Sun 05:55:52 AM 55.2833 172.9000 236° Southwest 490 564 37,000  Level Anchorage Center
Sun 05:56:52 AM 55.2167 172.6833 242° Southwest 490 564 37,000  Level Anchorage Center
Sun 05:57:52 AM 55.1500 172.5167 235° Southwest 480 552 37,000  Level Anchorage Center
Sun 05:58:52 AM 55.0667 172.3167 234° Southwest 490 564 37,000  Level Anchorage Center
Sun 05:59:52 AM 55.0000 172.1333 238° Southwest 490 564 37,000  Level Anchorage Center
Sun 06:00:52 AM 54.9000 171.9167 231° Southwest 500 575 37,000  Level Anchorage Center
Sun 06:01:53 AM 54.8333 171.7667 232° Southwest 480 552 37,000  Level Anchorage Center
Sun 06:02:53 AM 54.7500 171.5500 236° Southwest 490 564 37,000  Level Anchorage Center
Sun 06:03:53 AM 54.6667 171.3500 234° Southwest 490 564 37,000  Level Anchorage Center
Sun 06:04:52 AM 54.6000 171.1833 235° Southwest 470 541 37,000  Level Anchorage Center
Sun 06:05:53 AM 54.5167 170.9833 234° Southwest 490 564 37,000  Level Anchorage Center
Sun 06:06:53 AM 54.4333 170.8167 229° Southwest 490 564 37,000  Level Anchorage Center
Sun 06:07:53 AM 54.3667 170.6167 240° Southwest 460 529 37,000  Level Anchorage Center
Sun 06:08:53 AM 54.2833 170.4500 229° Southwest 490 564 37,000  Level Anchorage Center
Sun 06:09:53 AM 54.2000 170.2500 235° Southwest 480 552 37,000  Level Anchorage Center
Sun 06:10:53 AM 54.1333 170.0833 236° Southwest 490 564 37,000  Level Anchorage Center
Sun 06:11:53 AM 54.0333 169.8833 230° Southwest 490 564 37,000  Level Anchorage Center
Sun 06:12:53 AM 53.9500 169.7000 232° Southwest 480 552 37,000  Level Anchorage Center
Sun 06:13:53 AM 53.8833 169.5333 236° Southwest 480 552 37,000  Level Anchorage Center
Sun 06:14:53 AM 53.8000 169.3333 235° Southwest 490 564 37,000  Level Anchorage Center
Sun 06:15:53 AM 53.7167 169.1833 227° Southwest 490 564 37,000  Level Anchorage Center
Sun 06:16:53 AM 53.6500 168.9667 243° Southwest 480 552 37,000  Level Anchorage Center
Sun 06:17:53 AM 53.6000 168.7833 245° Southwest 490 564 37,000  Level Anchorage Center
Sun 06:18:53 AM 53.5333 168.5833 241° Southwest 480 552 37,000 Level Anchorage Center
Sun 06:21:00 AM 53.4539 168.3742 238° Southwest  Level FlightAware Approximate
Sun 06:28:00 AM 52.9717 167.0276 240° Southwest  Level FlightAware Approximate
Sun 06:29:00 AM 52.9021 166.8372 239° Southwest  Level FlightAware Approximate
Sun 06:30:00 AM 52.8323 166.6474 239° Southwest  Level FlightAware Approximate
Sun 06:31:00 AM 52.7621 166.4582 239° Southwest  Level FlightAware Approximate
Sun 06:32:00 AM 52.6917 166.2697 238° Southwest  Level FlightAware Approximate
Sun 06:33:00 AM 52.6209 166.0817 238° Southwest  Level FlightAware Approximate
Sun 06:34:00 AM 52.5499 165.8943 238° Southwest  Level FlightAware Approximate
Sun 06:35:00 AM 52.4785 165.7076 238° Southwest  Level FlightAware Approximate
Sun 06:36:00 AM 52.4069 165.5214 238° Southwest  Level FlightAware Approximate
Sun 06:37:00 AM 52.3350 165.3359 238° Southwest  Level FlightAware Approximate
Sun 06:38:00 AM 52.2628 165.1510 238° Southwest  Level FlightAware Approximate
Sun 06:39:00 AM 52.1903 164.9666 237° Southwest  Level FlightAware Approximate
Sun 06:40:00 AM 52.1175 164.7829 237° Southwest  Level FlightAware Approximate
Sun 06:41:00 AM 52.0444 164.5998 237° Southwest  Level FlightAware Approximate
Sun 06:42:00 AM 51.9710 164.4172 237° Southwest  Level FlightAware Approximate
Sun 06:43:00 AM 51.8974 164.2353 237° Southwest  Level FlightAware Approximate
Sun 06:44:00 AM 51.8235 164.0540 237° Southwest  Level FlightAware Approximate
Sun 06:45:00 AM 51.7493 163.8732 237° Southwest  Level FlightAware Approximate
Sun 06:46:00 AM 51.6748 163.6931 236° Southwest  Level FlightAware Approximate
Sun 06:47:00 AM 51.6003 163.5133 236° Southwest  Level FlightAware Approximate
Sun 06:48:00 AM 51.5256 163.3340 236° Southwest  Level FlightAware Approximate
Sun 06:49:00 AM 51.4506 163.1552 236° Southwest  Level FlightAware Approximate
Sun 06:50:00 AM 51.3753 162.9771 236° Southwest  Level FlightAware Approximate
Sun 06:51:00 AM 51.2998 162.7996 235° Southwest  Level FlightAware Approximate
Sun 06:52:00 AM 51.2235 162.6232 235° Southwest  Level FlightAware Approximate
Sun 06:53:00 AM 51.1469 162.4474 235° Southwest  Level FlightAware Approximate
Sun 06:54:00 AM 51.0700 162.2722 235° Southwest  Level FlightAware Approximate
Sun 06:55:00 AM 50.9929 162.0976 235° Southwest  Level FlightAware Approximate
Sun 06:56:00 AM 50.9156 161.9236 235° Southwest  Level FlightAware Approximate
Sun 06:57:00 AM 50.8379 161.7501 235° Southwest  Level FlightAware Approximate
Sun 06:58:00 AM 50.7601 161.5772 235° Southwest  Level FlightAware Approximate
Sun 06:59:00 AM 50.6819 161.4049 234° Southwest  Level FlightAware Approximate
Sun 07:00:00 AM 50.6035 161.2332 234° Southwest  Level FlightAware Approximate
Sun 07:01:00 AM 50.5249 161.0621 234° Southwest  Level FlightAware Approximate
Sun 07:02:00 AM 50.4460 160.8915 234° Southwest  Level FlightAware Approximate
Sun 07:03:00 AM 50.3668 160.7214 234° Southwest  Level FlightAware Approximate
Sun 07:04:00 AM 50.2874 160.5520 234° Southwest  Level FlightAware Approximate
Sun 07:05:00 AM 50.2078 160.3831 234° Southwest  Level FlightAware Approximate
Sun 07:06:00 AM 50.1286 160.2140 234° Southwest  Level FlightAware Approximate
Sun 07:07:00 AM 50.0492 160.0453 234° Southwest  Level FlightAware Approximate
Sun 07:08:00 AM 49.9696 159.8772 234° Southwest  Level FlightAware Approximate
Sun 07:09:00 AM 49.8898 159.7097 234° Southwest  Level FlightAware Approximate
Sun 07:10:00 AM 49.8097 159.5427 233° Southwest  Level FlightAware Approximate
Sun 07:11:00 AM 49.7294 159.3763 233° Southwest  Level FlightAware Approximate
Sun 07:12:00 AM 49.6483 159.2281 233° Southwest  Level FlightAware Approximate
Sun 07:13:00 AM 49.5669 159.0635 233° Southwest  Level FlightAware Approximate
Sun 07:14:00 AM 49.4852 158.8993 233° Southwest  Level FlightAware Approximate
Sun 07:15:00 AM 49.4033 158.7356 232° Southwest  Level FlightAware Approximate
Sun 07:16:00 AM 49.3212 158.5725 232° Southwest  Level FlightAware Approximate
Sun 07:17:00 AM 49.2388 158.4099 232° Southwest  Level FlightAware Approximate
Sun 07:18:00 AM 49.1562 158.2479 232° Southwest  Level FlightAware Approximate
Sun 07:19:00 AM 49.0734 158.0864 232° Southwest  Level FlightAware Approximate
Sun 07:20:00 AM 48.9904 157.9254 232° Southwest  Level FlightAware Approximate
Sun 07:21:00 AM 48.9071 157.7650 232° Southwest  Level FlightAware Approximate
Sun 07:22:00 AM 48.8236 157.6051 232° Southwest  Level FlightAware Approximate
Sun 07:23:00 AM 48.7399 157.4458 231° Southwest  Level FlightAware Approximate
Sun 07:24:00 AM 48.6564 157.2864 232° Southwest  Level FlightAware Approximate
Sun 07:25:00 AM 48.5727 157.1276 232° Southwest  Level FlightAware Approximate
Sun 07:26:00 AM 48.4888 156.9692 231° Southwest  Level FlightAware Approximate
Sun 07:27:00 AM 48.4047 156.8114 231° Southwest  Level FlightAware Approximate
Sun 07:28:00 AM 48.3204 156.6541 231° Southwest  Level FlightAware Approximate
Sun 07:29:00 AM 48.2359 156.4974 231° Southwest  Level FlightAware Approximate
Sun 07:30:00 AM 48.1511 156.3411 231° Southwest  Level FlightAware Approximate
Sun 07:31:00 AM 48.0661 156.1854 231° Southwest  Level FlightAware Approximate
Sun 07:32:00 AM 47.9810 156.0302 231° Southwest  Level FlightAware Approximate
Sun 07:33:00 AM 47.8956 155.8754 231° Southwest  Level FlightAware Approximate
Sun 07:34:00 AM 47.8100 155.7212 230° Southwest  Level FlightAware Approximate
Sun 07:35:00 AM 47.7242 155.5676 230° Southwest  Level FlightAware Approximate
Sun 07:36:00 AM 47.6382 155.4144 230° Southwest  Level FlightAware Approximate
Sun 07:37:00 AM 47.5520 155.2617 230° Southwest  Level FlightAware Approximate
Sun 07:38:00 AM 47.4656 155.1095 230° Southwest  Level FlightAware Approximate
Sun 07:39:00 AM 47.3790 154.9578 230° Southwest  Level FlightAware Approximate
Sun 07:40:00 AM 47.2922 154.8066 230° Southwest  Level FlightAware Approximate
Sun 07:41:00 AM 47.2052 154.6559 230° Southwest  Level FlightAware Approximate
Sun 07:42:00 AM 47.1180 154.5058 230° Southwest  Level FlightAware Approximate
Sun 07:43:00 AM 47.0306 154.3561 229° Southwest  Level FlightAware Approximate
Sun 07:44:00 AM 46.9430 154.2068 229° Southwest  Level FlightAware Approximate
Sun 07:45:00 AM 46.8552 154.0581 229° Southwest  Level FlightAware Approximate
Sun 07:46:00 AM 46.7673 153.9099 229° Southwest  Level FlightAware Approximate
Sun 07:47:00 AM 46.6791 153.7621 229° Southwest  Level FlightAware Approximate
Sun 07:48:00 AM 46.5908 153.6149 229° Southwest  Level FlightAware Approximate
Sun 07:49:00 AM 46.5022 153.4681 229° Southwest  Level FlightAware Approximate
Sun 07:50:00 AM 46.4135 153.3218 229° Southwest  Level FlightAware Approximate
Sun 07:51:00 AM 46.3246 153.1759 229° Southwest  Level FlightAware Approximate
Sun 07:52:00 AM 46.2355 153.0306 228° Southwest  Level FlightAware Approximate
Sun 07:53:00 AM 46.1455 152.8864 228° Southwest  Level FlightAware Approximate
Sun 07:54:00 AM 46.0552 152.7431 228° Southwest  Level FlightAware Approximate
Sun 07:55:00 AM 45.9648 152.6002 228° Southwest  Level FlightAware Approximate
Sun 07:56:00 AM 45.8742 152.4577 228° Southwest  Level FlightAware Approximate
Sun 07:57:00 AM 45.7834 152.3157 228° Southwest  Level FlightAware Approximate
Sun 07:58:00 AM 45.6924 152.1742 227° Southwest  Level FlightAware Approximate
Sun 07:59:00 AM 45.6012 152.0332 227° Southwest  Level FlightAware Approximate
Sun 08:00:00 AM 45.5099 151.8926 227° Southwest  Level FlightAware Approximate
Sun 08:01:00 AM 45.4184 151.7524 227° Southwest  Level FlightAware Approximate
Sun 08:02:00 AM 45.3267 151.6127 227° Southwest  Level FlightAware Approximate
Sun 08:03:00 AM 45.2349 151.4735 227° Southwest  Level FlightAware Approximate
Sun 08:04:00 AM 45.1429 151.3347 227° Southwest  Level FlightAware Approximate
Sun 08:05:00 AM 45.0507 151.1964 227° Southwest  Level FlightAware Approximate
Sun 08:06:00 AM 44.9584 151.0585 227° Southwest  Level FlightAware Approximate
Sun 08:07:00 AM 44.8659 150.9210 227° Southwest  Level FlightAware Approximate
Sun 08:08:00 AM 44.7732 150.7840 226° Southwest  Level FlightAware Approximate
Sun 08:09:00 AM 44.6804 150.6474 226° Southwest  Level FlightAware Approximate
Sun 08:10:00 AM 44.5874 150.5113 226° Southwest  Level FlightAware Approximate
Sun 08:11:00 AM 44.4942 150.3756 226° Southwest  Level FlightAware Approximate
Sun 08:12:00 AM 44.4009 150.2404 226° Southwest  Level FlightAware Approximate
Sun 08:13:00 AM 44.3074 150.1055 226° Southwest  Level FlightAware Approximate
Sun 08:14:00 AM 44.2138 149.9711 226° Southwest  Level FlightAware Approximate
Sun 08:15:00 AM 44.1200 149.8371 226° Southwest  Level FlightAware Approximate
Sun 08:16:00 AM 44.0260 149.7036 226° Southwest  Level FlightAware Approximate
Sun 08:17:00 AM 43.9319 149.5705 226° Southwest  Level FlightAware Approximate
Sun 08:18:00 AM 43.8377 149.4378 225° Southwest  Level FlightAware Approximate
Sun 08:19:00 AM 43.7433 149.3055 225° Southwest  Level FlightAware Approximate
Sun 08:20:00 AM 43.6487 149.1736 225° Southwest  Level FlightAware Approximate
Sun 08:21:00 AM 43.5540 149.0421 225° Southwest  Level FlightAware Approximate
Sun 08:22:00 AM 43.4591 148.9111 225° Southwest  Level FlightAware Approximate
Sun 08:23:00 AM 43.3641 148.7805 225° Southwest  Level FlightAware Approximate
Sun 08:24:00 AM 43.2690 148.6503 225° Southwest  Level FlightAware Approximate
Sun 08:25:00 AM 43.1736 148.5204 225° Southwest  Level FlightAware Approximate
Sun 08:25:10 AM 43.5450 148.9850 225° Southwest 456 525 38,000  Level FlightAware ADS-B
Sun 08:26:00 AM 43.0782 148.3910 225° Southwest  Level FlightAware Approximate
Sun 08:26:10 AM 43.4520 148.8570 225° Southwest 456 525 38,000  Level FlightAware ADS-B
Sun 08:26:50 AM 43.3920 148.7740 225° Southwest 461 531 38,000  Level FlightAware ADS-B
Sun 08:27:25 AM 43.3400 148.7040 224° Southwest 461 531 38,000  Level FlightAware ADS-B
Sun 08:28:10 AM 43.2710 148.6090 225° Southwest 461 531 38,000  Level FlightAware ADS-B
Sun 08:28:50 AM 43.2110 148.5280 225° Southwest 455 524 38,000  Level FlightAware ADS-B
Sun 08:29:25 AM 43.1580 148.4550 225° Southwest 455 524 38,000  Level FlightAware ADS-B
Sun 08:30:10 AM 43.0890 148.3630 224° Southwest 454 522 38,000  Level FlightAware ADS-B
Sun 08:30:55 AM 43.0210 148.2710 225° Southwest 459 528 38,000  Level FlightAware ADS-B
Sun 08:31:35 AM 42.9610 148.1900 225° Southwest 459 528 38,000  Level FlightAware ADS-B
Sun 08:32:15 AM 42.9010 148.1080 225° Southwest 454 522 38,000  Level FlightAware ADS-B
Sun 08:32:55 AM 42.8400 148.0270 224° Southwest 454 522 38,000  Level FlightAware ADS-B
Sun 08:33:35 AM 42.7790 147.9450 225° Southwest 455 524 38,000  Level FlightAware ADS-B
Sun 08:34:15 AM 42.7180 147.8640 224° Southwest 455 524 38,000  Level FlightAware ADS-B
Sun 08:34:55 AM 42.6570 147.7820 225° Southwest 455 524 38,000  Level FlightAware ADS-B
Sun 08:35:35 AM 42.5960 147.7020 224° Southwest 454 522 38,000  Level FlightAware ADS-B
Sun 08:36:37 AM 42.5020 147.5760 225° Southwest 453 521 38,000  Level FlightAware ADS-B
Sun 08:37:22 AM 42.4350 147.4840 225° Southwest 459 528 38,000  Level FlightAware ADS-B
Sun 08:37:57 AM 42.3940 147.4010 236° Southwest 464 534 38,000  Level FlightAware ADS-B
Sun 08:38:42 AM 42.3480 147.2840 242° Southwest 464 534 38,000  Level FlightAware ADS-B
Sun 08:39:27 AM 42.3020 147.1680 242° Southwest 466 536 38,000  Level FlightAware ADS-B
Sun 08:39:52 AM 42.2770 147.1040 242° Southwest 466 536 38,000  Level FlightAware ADS-B
Sun 08:40:47 AM 42.2200 146.9610 242° Southwest 469 540 38,000  Level FlightAware ADS-B
Sun 08:41:27 AM 42.1790 146.8580 242° Southwest 464 534 38,000  Level FlightAware ADS-B
Sun 08:41:52 AM 42.1530 146.7940 241° Southwest 464 534 38,000  Level FlightAware ADS-B
Sun 08:42:47 AM 42.0970 146.6540 242° Southwest 467 537 38,000  Level FlightAware ADS-B
Sun 08:43:27 AM 42.0550 146.5510 241° Southwest 468 539 38,000  Level FlightAware ADS-B
Sun 08:44:12 AM 42.0080 146.4370 241° Southwest 468 539 38,000  Level FlightAware ADS-B
Sun 08:44:52 AM 41.9660 146.3350 241° Southwest 469 540 38,000  Level FlightAware ADS-B
Sun 08:45:41 AM 41.9220 146.2270 241° Southwest 469 540 38,000  Level FlightAware ADS-B
Sun 08:46:16 AM 41.8800 146.1190 242° Southwest 466 536 38,000  Level FlightAware ADS-B
Sun 08:46:56 AM 41.8400 146.0160 242° Southwest 467 537 38,000  Level FlightAware ADS-B
Sun 08:47:36 AM 41.7990 145.9130 242° Southwest 466 536 38,000  Level FlightAware ADS-B
Sun 08:48:16 AM 41.7580 145.8110 242° Southwest 466 536 38,000  Level FlightAware ADS-B
Sun 08:49:01 AM 41.7120 145.6960 242° Southwest 465 535 38,000  Level FlightAware ADS-B
Sun 08:49:41 AM 41.6710 145.5930 242° Southwest 468 539 38,000  Level FlightAware ADS-B
Sun 08:50:21 AM 41.6290 145.4920 241° Southwest 467 537 38,000  Level FlightAware ADS-B
Sun 08:51:06 AM 41.5830 145.3790 241° Southwest 464 534 38,000  Level FlightAware ADS-B
Sun 08:51:46 AM 41.5420 145.2760 242° Southwest 464 534 38,000  Level FlightAware ADS-B
Sun 08:52:31 AM 41.4970 145.1620 242° Southwest 465 535 38,000  Level FlightAware ADS-B
Sun 08:53:11 AM 41.4550 145.0570 242° Southwest 465 535 38,000  Level FlightAware ADS-B
Sun 08:53:51 AM 41.4150 144.9590 241° Southwest 470 541 38,000  Level FlightAware ADS-B
Sun 08:54:36 AM 41.3680 144.8430 242° Southwest 473 544 38,000  Level FlightAware ADS-B
Sun 08:55:16 AM 41.3270 144.7470 240° Southwest 472 543 38,000  Level FlightAware ADS-B
Sun 08:56:16 AM 41.2630 144.5940 241° Southwest 474 545 38,000  Level FlightAware ADS-B
Sun 08:56:57 AM 41.2160 144.4820 241° Southwest 476 548 38,000  Level FlightAware ADS-B
Sun 08:57:37 AM 41.1730 144.3810 241° Southwest 478 550 38,000  Level FlightAware ADS-B
Sun 08:58:17 AM 41.1270 144.2730 241° Southwest 484 557 38,000  Level FlightAware ADS-B
Sun 08:58:52 AM 41.0880 144.1830 240° Southwest 486 559 38,000  Level FlightAware ADS-B
Sun 08:59:37 AM 41.0390 144.0700 240° Southwest 489 563 38,000  Level FlightAware ADS-B
Sun 09:00:25 AM 41.0030 143.9860 240° Southwest 491 565 38,000  Level FlightAware ADS-B
Sun 09:01:07 AM 40.9360 143.8340 240° Southwest 492 566 38,000  Level FlightAware ADS-B
Sun 09:01:47 AM 40.8890 143.7260 240° Southwest 493 567 38,000  Level FlightAware ADS-B
Sun 09:02:33 AM 40.8370 143.6090 240° Southwest 499 574 38,000  Level FlightAware ADS-B
Sun 09:03:13 AM 40.7880 143.5060 238° Southwest 499 574 38,000  Level FlightAware ADS-B
Sun 09:03:53 AM 40.7350 143.4040 236° Southwest 494 568 38,000  Level FlightAware ADS-B
Sun 09:04:38 AM 40.6750 143.2900 235° Southwest 494 568 38,000  Level FlightAware ADS-B
Sun 09:05:13 AM 40.6360 143.2150 236° Southwest 494 568 38,000  Level FlightAware ADS-B
Sun 09:05:48 AM 40.5850 143.1180 235° Southwest 494 568 38,000  Level FlightAware ADS-B
Sun 09:06:33 AM 40.5250 143.0040 235° Southwest 494 568 38,000  Level FlightAware ADS-B
Sun 09:07:13 AM 40.4720 142.9040 235° Southwest 493 567 38,000  Level FlightAware ADS-B
Sun 09:07:53 AM 40.4190 142.8060 235° Southwest 492 566 38,000  Level FlightAware ADS-B
Sun 09:08:33 AM 40.3660 142.7070 235° Southwest 491 565 38,000  Level FlightAware ADS-B
Sun 09:09:18 AM 40.3090 142.6030 234° Southwest 489 563 38,000  Level FlightAware ADS-B
Sun 09:09:53 AM 40.2610 142.5140 235° Southwest 491 565 38,000  Level FlightAware ADS-B
Sun 09:10:34 AM 40.2060 142.4130 235° Southwest 497 572 38,000  Level FlightAware ADS-B
Sun 09:11:14 AM 40.1520 142.3150 234° Southwest 499 574 38,000  Level FlightAware ADS-B
Sun 09:11:56 AM 40.1040 142.2280 234° Southwest 501 577 38,000  Level FlightAware ADS-B
Sun 09:12:44 AM 40.0290 142.0920 234° Southwest 498 573 38,000  Level FlightAware ADS-B
Sun 09:13:25 AM 39.9730 141.9940 233° Southwest 497 572 38,000  Level FlightAware ADS-B
Sun 09:14:05 AM 39.9190 141.8970 234° Southwest 498 573 38,000  Level FlightAware ADS-B
Sun 09:14:40 AM 39.8710 141.8100 234° Southwest 502 578 38,000  Level FlightAware ADS-B
Sun 09:15:25 AM 39.8150 141.7040 236° Southwest 503 579 38,000  Level FlightAware ADS-B
Sun 09:16:05 AM 39.7580 141.6000 235° Southwest 504 580 38,000  Level FlightAware ADS-B
Sun 09:16:40 AM 39.7110 141.5120 235° Southwest 504 580 38,000  Level FlightAware ADS-B
Sun 09:17:20 AM 39.6570 141.4140 234° Southwest 501 577 38,000  Level FlightAware ADS-B
Sun 09:18:05 AM 39.5940 141.3030 234° Southwest 509 586 38,000  Level FlightAware ADS-B
Sun 09:18:40 AM 39.5470 141.2190 234° Southwest 508 585 38,000  Level FlightAware ADS-B
Sun 09:19:20 AM 39.4920 141.1200 234° Southwest 514 592 38,000  Level FlightAware ADS-B
Sun 09:20:30 AM 39.3830 140.9690 227° Southwest 525 604 38,000  Level FlightAware ADS-B
Sun 09:21:15 AM 39.2990 140.8560 226° Southwest 528 608 38,000  Level FlightAware ADS-B
Sun 09:21:54 AM 39.2320 140.7680 226° Southwest 522 601 38,000 -313 Level FlightAware ADS-B
Sun 09:22:51 AM 39.1540 140.6630 226° Southwest 530 610 37,500 -839 Descending FlightAware ADS-B
Sun 09:23:27 AM 39.0760 140.5590 226° Southwest 529 609 36,700 -1,184 Descending FlightAware ADS-B
Sun 09:24:07 AM 39.0080 140.4670 226° Southwest 526 605 36,000 -525 Descending FlightAware ADS-B
Sun 09:24:47 AM 38.9410 140.3770 226° Southwest 530 610 36,000  Level FlightAware ADS-B
Sun 09:25:32 AM 38.8650 140.2750 226° Southwest 531 611 36,000  Level FlightAware ADS-B
Sun 09:26:12 AM 38.7960 140.1830 226° Southwest 532 612 36,000  Level FlightAware ADS-B
Sun 09:26:57 AM 38.7210 140.0820 226° Southwest 541 623 36,000  Level FlightAware ADS-B
Sun 09:27:39 AM 38.6460 139.9830 226° Southwest 545 627 36,000  Level FlightAware ADS-B
Sun 09:28:19 AM 38.5760 139.8900 226° Southwest 545 627 36,000  Level FlightAware ADS-B
Sun 09:29:03 AM 38.4990 139.7900 225° Southwest 545 627 36,000  Level FlightAware ADS-B
Sun 09:30:00 AM 38.4010 139.6610 226° Southwest 549 632 36,000  Level FlightAware ADS-B
Sun 09:30:40 AM 38.3310 139.5810 222° Southwest 558 642 36,000  Level FlightAware ADS-B
Sun 09:31:20 AM 38.2370 139.4930 216° Southwest 566 651 36,000  Level FlightAware ADS-B
Sun 09:32:00 AM 38.1490 139.4190 213° Southwest 566 651 36,000  Level FlightAware ADS-B
Sun 09:32:40 AM 38.0660 139.3490 214° Southwest 566 651 36,000  Level FlightAware ADS-B
Sun 09:33:20 AM 37.9760 139.2730 214° Southwest 566 651 36,000  Level FlightAware ADS-B
Sun 09:34:00 AM 37.8890 139.1990 214° Southwest 565 650 36,000  Level FlightAware ADS-B
Sun 09:34:40 AM 37.8030 139.1260 214° Southwest 564 649 36,000  Level FlightAware ADS-B
Sun 09:35:25 AM 37.7060 139.0420 214° Southwest 564 649 36,000  Level FlightAware ADS-B
Sun 09:36:10 AM 37.6080 138.9580 214° Southwest 562 647 36,000  Level FlightAware ADS-B
Sun 09:36:50 AM 37.5220 138.8850 214° Southwest 561 646 36,000  Level FlightAware ADS-B
Sun 09:37:25 AM 37.4480 138.8220 214° Southwest 560 644 36,000  Level FlightAware ADS-B
Sun 09:37:55 AM 37.3840 138.7670 214° Southwest 559 643 36,000  Level FlightAware ADS-B
Sun 09:38:35 AM 37.2960 138.6930 214° Southwest 562 647 36,000  Level FlightAware ADS-B
Sun 09:39:15 AM 37.2090 138.6290 210° Southwest 562 647 36,000  Level FlightAware ADS-B
Sun 09:40:00 AM 37.1060 138.5550 210° Southwest 560 644 36,000  Level FlightAware ADS-B
Sun 09:40:45 AM 37.0050 138.4810 210° Southwest 559 643 36,000  Level FlightAware ADS-B
Sun 09:41:20 AM 36.9260 138.4230 210° Southwest 560 644 36,000 -225 Level FlightAware ADS-B
Sun 09:42:05 AM 36.8260 138.3480 211° Southwest 557 641 35,700 -675 Descending FlightAware ADS-B
Sun 09:42:40 AM 36.7490 138.2910 211° Southwest 557 641 35,100 -1,407 Descending FlightAware ADS-B
Sun 09:43:26 AM 36.6520 138.2190 211° Southwest 539 620 33,800 -1,906 Descending FlightAware ADS-B
Sun 09:44:05 AM 36.5670 138.1560 211° Southwest 521 600 32,400 -2,027 Descending FlightAware ADS-B
Sun 09:44:40 AM 36.4950 138.1030 211° Southwest 506 582 31,300 -1,920 Descending FlightAware ADS-B
Sun 09:45:20 AM 36.4190 138.0470 211° Southwest 491 565 30,000 -2,047 Descending FlightAware ADS-B
Sun 09:46:05 AM 36.3290 137.9810 211° Southwest 474 545 28,400 -1,976 Descending FlightAware ADS-B
Sun 09:46:45 AM 36.2610 137.9300 211° Southwest 459 528 27,200 -2,047 Descending FlightAware ADS-B
Sun 09:47:30 AM 36.1750 137.8680 210° Southwest 439 505 25,500 -2,188 Descending FlightAware ADS-B
Sun 09:48:10 AM 36.1060 137.8180 210° Southwest 423 487 24,100 -2,100 Descending FlightAware ADS-B
Sun 09:48:50 AM 36.0420 137.7710 211° Southwest 410 472 22,700 -2,200 Descending FlightAware ADS-B
Sun 09:49:40 AM 35.9600 137.7110 211° Southwest 396 456 20,800 -2,200 Descending FlightAware ADS-B
Sun 09:50:20 AM 35.8980 137.6660 210° Southwest 388 447 19,400 -2,121 Descending FlightAware ADS-B
Sun 09:51:19 AM 35.8080 137.6000 211° Southwest 376 433 17,300 -2,061 Descending FlightAware ADS-B
Sun 09:51:59 AM 35.7500 137.5590 210° Southwest 371 427 16,000 -1,643 Descending FlightAware ADS-B
Sun 09:52:43 AM 35.6860 137.5050 214° Southwest 366 421 15,000 -714 Descending FlightAware ADS-B
Sun 09:53:23 AM 35.6350 137.4520 220° Southwest 359 413 15,000  Level FlightAware ADS-B
Sun 09:54:08 AM 35.5790 137.3910 222° Southwest 349 402 15,000 -353 Level FlightAware ADS-B
Sun 09:54:48 AM 35.5300 137.3390 221° Southwest 350 403 14,500 -1,412 Descending FlightAware ADS-B
Sun 09:55:33 AM 35.4750 137.2810 221° Southwest 342 394 13,000 -1,835 Descending FlightAware ADS-B
Sun 09:56:13 AM 35.4280 137.2300 221° Southwest 328 377 11,900 -1,350 Descending FlightAware ADS-B
Sun 09:56:53 AM 35.3830 137.1820 221° Southwest 305 351 11,200 -918 Descending FlightAware ADS-B
Sun 09:57:38 AM 35.3360 137.1310 222° Southwest 281 323 10,600 -847 Descending FlightAware ADS-B
Sun 09:58:18 AM 35.2970 137.0900 221° Southwest 271 312 10,000 -1,108 Descending FlightAware ADS-B
Sun 09:58:43 AM 35.2730 137.0660 219° Southwest 270 311 9,400 -1,440 Descending FlightAware ADS-B
Sun 09:59:08 AM 35.2490 137.0420 219° Southwest 263 303 8,800 -1,350 Descending FlightAware ADS-B
Sun 09:59:23 AM 35.2350 137.0270 221° Southwest 262 302 8,500 -1,200 Descending FlightAware ADS-B
Sun 09:59:48 AM 35.2110 137.0010 222° Southwest 263 303 8,000 -1,176 Descending FlightAware ADS-B
Sun 10:00:14 AM 35.1890 136.9760 223° Southwest 259 298 7,500 -960 Descending FlightAware ADS-B
Sun 10:00:38 AM 35.1700 136.9560 221° Southwest 259 298 7,200 -333 Descending FlightAware ADS-B
Sun 10:01:08 AM 35.1400 136.9220 223° Southwest 261 300 7,200  Level FlightAware ADS-B
Sun 10:01:18 AM 35.1310 136.9120 222° Southwest 257 296 7,200  Level FlightAware ADS-B
Sun 10:01:48 AM 35.1040 136.8840 220° Southwest 253 291 7,200  Level FlightAware ADS-B
Sun 10:02:13 AM 35.0820 136.8610 221° Southwest 254 292 7,200 -436 Level FlightAware ADS-B
Sun 10:02:43 AM 35.0550 136.8330 220° Southwest 239 275 6,800 -913 Descending FlightAware ADS-B
Sun 10:02:59 AM 35.0420 136.8190 221° Southwest 236 272 6,500 -1,304 Descending FlightAware ADS-B
Sun 10:03:29 AM 35.0170 136.7920 221° Southwest 240 276 5,800 -1,444 Descending FlightAware ADS-B
Sun 10:03:53 AM 34.9960 136.7700 221° Southwest 241 277 5,200 -1,469 Descending FlightAware ADS-B
Sun 10:04:18 AM 34.9750 136.7470 222° Southwest 233 268 4,600 -1,000 Descending FlightAware ADS-B
Sun 10:04:53 AM 34.9480 136.7160 223° Southwest 220 253 4,200 -655 Descending FlightAware ADS-B
Sun 10:05:13 AM 34.9340 136.6990 225° Southwest 204 235 4,000 -1,067 Descending FlightAware ADS-B
Sun 10:05:38 AM 34.9140 136.6830 213° Southwest 203 234 3,400 -1,317 Descending FlightAware ADS-B
Sun 10:05:54 AM 34.8980 136.6820 183° South 199 229 3,100 -900 Descending FlightAware ADS-B
Sun 10:06:18 AM 34.8760 136.6880 167° South 200 230 2,800 -667 Descending FlightAware ADS-B
Sun 10:06:48 AM 34.8490 136.6970 165° South 191 220 2,500 -533 Descending FlightAware ADS-B
Sun 10:07:03 AM 34.8370 136.7030 158° South 195 224 2,400 -343 Descending FlightAware ADS-B
Sun 10:07:23 AM 34.8210 136.7170 144° Southeast 196 226 2,300 -240 Descending FlightAware ADS-B
Sun 10:07:53 AM 34.8020 136.7420 133° Southeast 203 234 2,200 -267 Descending FlightAware ADS-B
Sun 10:08:08 AM 34.7980 136.7590 106° East 207 238 2,100 -300 Descending FlightAware ADS-B
Sun 10:08:33 AM 34.8020 136.7860 80° East 181 208 2,000 -600 Descending FlightAware ADS-B
Sun 10:08:48 AM 34.8080 136.8000 62° Northeast 179 206 1,700 -1,000 Descending FlightAware ADS-B
Sun 10:09:03 AM 34.8160 136.8100 46° Northeast 172 198 1,500 -800 Descending FlightAware ADS-B
Sun 10:09:18 AM 34.8280 136.8140 15° North 165 190 1,300 -750 Descending FlightAware ADS-B
Sun 10:09:43 AM 34.8460 136.8110 352° North 148 170 1,000 -857 Descending FlightAware ADS-B
Sun 10:09:53 AM 34.8530 136.8090 347° North 150 173 800 -414 Descending FlightAware ADS-B
Sun 10:10:41 AM 34.8830 136.8020 349° North 164 189 600 -250 Descending FlightAware ADS-B

Login

Don't have an account? Register now (free) for customized features, flight alerts, and more!